Time;durP1;ratioP1;P1;durP2;ratioP2;P2;SDS_P1;SDS_P2;PMS_P1;PMS_P2;Temp;Humidity;BMP_temperature;BMP_pressure;BME280_temperature;BME280_humidity;BME280_pressure;Samples;Min_cycle;Max_cycle;Signal;HPM_P1;HPM_P2
2023/05/02 00:00:35;;;;;;;;;;;;;;;;;;5064408;28;21006;-64
2023/05/02 00:03:04;;;;;;;;;;;;;;;;;;5066591;28;21559;-65
2023/05/02 00:05:31;;;;;;;;;;;;;;;;;;5069319;28;20372;-64
2023/05/02 00:07:58;;;;;;;;;;;;;;;;;;5068885;28;19971;-64
2023/05/02 00:10:25;;;;;;;;;;;;;;;;;;5069141;28;19924;-63
2023/05/02 00:12:52;;;;;;;;;;;;;;;;;;5067099;28;20301;-64
2023/05/02 00:15:19;;;;;;;;;;;;;;;;;;5064866;28;19970;-64
2023/05/02 00:17:46;;;;;;;;;;;;;;;;;;5063714;28;20022;-64
2023/05/02 00:20:13;;;;;;;;;;;;;;;;;;5066943;28;19968;-64
2023/05/02 00:22:40;;;;;;;;;;;;;;;;;;5068883;28;19924;-64
2023/05/02 00:25:07;;;;;;;;;;;;;;;;;;5066154;28;19972;-64
2023/05/02 00:27:34;;;;;;;;;;;;;;;;;;5068060;28;19928;-64
2023/05/02 00:30:01;;;;;;;;;;;;;;;;;;5066514;28;20377;-64
2023/05/02 00:32:28;;;;;;;;;;;;;;;;;;5064649;28;19932;-64
2023/05/02 00:34:55;;;;;;;;;;;;;;;;;;5071222;28;20409;-64
2023/05/02 00:37:22;;;;;;;;;;;;;;;;;;5066496;28;19928;-64
2023/05/02 00:39:49;;;;;;;;;;;;;;;;;;5063490;28;20707;-64
2023/05/02 00:42:16;;;;;;;;;;;;;;;;;;5069660;28;19967;-64
2023/05/02 00:44:43;;;;;;;;;;;;;;;;;;5070456;28;19986;-64
2023/05/02 00:47:10;;;;;;;;;;;;;;;;;;5065892;28;19963;-64
2023/05/02 00:49:37;;;;;;;;;;;;;;;;;;5068720;28;19994;-64
2023/05/02 00:52:04;;;;;;;;;;;;;;;;;;5070890;28;19969;-64
2023/05/02 00:54:31;;;;;;;;;;;;;;;;;;5062747;28;20393;-65
2023/05/02 00:56:58;;;;;;;;;;;;;;;;;;5074186;28;19932;-64
2023/05/02 00:59:25;;;;;;;;;;;;;;;;;;5065580;28;20442;-65
2023/05/02 01:01:52;;;;;;;;;;;;;;;;;;5070279;28;20391;-64
2023/05/02 01:04:19;;;;;;;;;;;;;;;;;;5070048;28;19933;-67
2023/05/02 01:06:46;;;;;;;;;;;;;;;;;;5057967;28;19925;-64
2023/05/02 01:09:15;;;;;;;;;;;;;;;;;;5075287;28;19963;-64
2023/05/02 01:11:42;;;;;;;;;;;;;;;;;;5092358;28;20312;-64
2023/05/02 01:14:09;;;;;;;;;;;;;;;;;;5062050;28;19964;-64
2023/05/02 01:16:39;;;;;;;;;;;;;;;;;;5065409;28;19925;-64
2023/05/02 01:19:06;;;;;;;;;;;;;;;;;;5052287;28;19950;-64
2023/05/02 01:21:33;;;;;;;;;;;;;;;;;;5064039;28;19924;-64
2023/05/02 01:24:00;;;;;;;;;;;;;;;;;;5062475;28;19925;-64
2023/05/02 01:26:27;;;;;;;;;;;;;;;;;;5057073;28;19925;-64
2023/05/02 01:28:54;;;;;;;;;;;;;;;;;;5066802;28;19925;-64
2023/05/02 01:31:21;;;;;;;;;;;;;;;;;;5057627;28;19975;-64
2023/05/02 01:33:48;;;;;;;;;;;;;;;;;;5079499;28;20416;-64
2023/05/02 01:36:15;;;;;;;;;;;;;;;;;;5092609;28;19977;-64
2023/05/02 01:38:42;;;;;;;;;;;;;;;;;;5065345;28;19964;-64
2023/05/02 01:41:09;;;;;;;;;;;;;;;;;;5063246;28;19924;-63
2023/05/02 01:43:36;;;;;;;;;;;;;;;;;;5052418;28;20381;-64
2023/05/02 01:46:03;;;;;;;;;;;;;;;;;;5051069;28;20007;-64
2023/05/02 01:48:30;;;;;;;;;;;;;;;;;;5062137;28;19978;-64
2023/05/02 01:50:57;;;;;;;;;;;;;;;;;;5058355;28;19932;-64
2023/05/02 01:53:24;;;;;;;;;;;;;;;;;;5069794;28;19931;-64
2023/05/02 01:55:51;;;;;;;;;;;;;;;;;;5060756;28;19925;-64
2023/05/02 01:58:18;;;;;;;;;;;;;;;;;;5060731;28;19924;-64
2023/05/02 02:00:45;;;;;;;;;;;;;;;;;;5056660;28;19968;-64
2023/05/02 02:03:12;;;;;;;;;;;;;;;;;;5062788;28;19974;-64
2023/05/02 02:05:39;;;;;;;;;;;;;;;;;;5067590;28;19987;-64
2023/05/02 02:08:06;;;;;;;;;;;;;;;;;;5062490;28;19959;-64
2023/05/02 02:10:33;;;;;;;;;;;;;;;;;;5064798;28;20443;-65
2023/05/02 02:13:00;;;;;;;;;;;;;;;;;;5054663;28;19924;-64
2023/05/02 02:15:27;;;;;;;;;;;;;;;;;;5056764;28;19924;-64
2023/05/02 02:17:54;;;;;;;;;;;;;;;;;;5059707;28;19924;-64
2023/05/02 02:20:21;;;;;;;;;;;;;;;;;;5059529;28;19958;-64
2023/05/02 02:22:48;;;;;;;;;;;;;;;;;;5071136;28;19932;-64
2023/05/02 02:25:15;;;;;;;;;;;;;;;;;;5051137;28;20047;-65
2023/05/02 02:27:42;;;;;;;;;;;;;;;;;;5056070;28;19928;-65
2023/05/02 02:30:09;;;;;;;;;;;;;;;;;;5069666;28;20289;-65
2023/05/02 02:32:36;;;;;;;;;;;;;;;;;;5055216;28;19929;-64
2023/05/02 02:35:03;;;;;;;;;;;;;;;;;;5052206;28;19991;-64
2023/05/02 02:37:30;;;;;;;;;;;;;;;;;;5069862;28;19979;-65
2023/05/02 02:39:57;;;;;;;;;;;;;;;;;;5055939;28;19960;-64
2023/05/02 02:42:24;;;;;;;;;;;;;;;;;;5074292;28;19946;-65
2023/05/02 02:44:51;;;;;;;;;;;;;;;;;;5071318;28;19924;-65
2023/05/02 02:47:18;;;;;;;;;;;;;;;;;;5062753;28;19970;-65
2023/05/02 02:49:46;;;;;;;;;;;;;;;;;;5064886;28;19935;-65
2023/05/02 02:52:13;;;;;;;;;;;;;;;;;;5058525;28;19968;-65
2023/05/02 02:54:40;;;;;;;;;;;;;;;;;;5054253;28;19924;-64
2023/05/02 02:57:07;;;;;;;;;;;;;;;;;;5069353;28;19924;-65
2023/05/02 02:59:34;;;;;;;;;;;;;;;;;;5059476;28;19994;-65
2023/05/02 03:02:02;;;;;;;;;;;;;;;;;;5070234;28;20025;-65
2023/05/02 03:04:29;;;;;;;;;;;;;;;;;;5058873;28;20317;-65
2023/05/02 03:06:56;;;;;;;;;;;;;;;;;;5065879;28;19963;-64
2023/05/02 03:09:24;;;;;;;;;;;;;;;;;;5071035;28;19931;-65
2023/05/02 03:11:51;;;;;;;;;;;;;;;;;;5073003;28;19928;-64
2023/05/02 03:14:18;;;;;;;;;;;;;;;;;;5063583;28;20282;-65
2023/05/02 03:16:45;;;;;;;;;;;;;;;;;;5058252;28;19929;-65
2023/05/02 03:19:13;;;;;;;;;;;;;;;;;;5060255;28;19967;-66
2023/05/02 03:21:40;;;;;;;;;;;;;;;;;;5070154;28;20393;-65
2023/05/02 03:24:07;;;;;;;;;;;;;;;;;;5059343;28;19982;-64
2023/05/02 03:26:35;;;;;;;;;;;;;;;;;;5055342;28;19932;-65
2023/05/02 03:29:02;;;;;;;;;;;;;;;;;;5065610;28;19938;-65
2023/05/02 03:31:29;;;;;;;;;;;;;;;;;;5058683;28;20282;-66
2023/05/02 03:33:56;;;;;;;;;;;;;;;;;;5073375;28;19924;-65
2023/05/02 03:36:23;;;;;;;;;;;;;;;;;;5063811;28;19990;-65
2023/05/02 03:38:53;;;;;;;;;;;;;;;;;;5064108;28;19982;-67
2023/05/02 03:41:20;;;;;;;;;;;;;;;;;;5055364;28;19947;-66
2023/05/02 03:43:47;;;;;;;;;;;;;;;;;;5055796;28;20355;-66
2023/05/02 03:46:14;;;;;;;;;;;;;;;;;;5061217;28;20300;-66
2023/05/02 03:48:42;;;;;;;;;;;;;;;;;;5058271;28;19972;-64
2023/05/02 03:51:09;;;;;;;;;;;;;;;;;;5068837;28;19931;-64
2023/05/02 03:53:36;;;;;;;;;;;;;;;;;;5072696;28;20381;-64
2023/05/02 03:56:03;;;;;;;;;;;;;;;;;;5071414;28;19925;-64
2023/05/02 03:58:30;;;;;;;;;;;;;;;;;;5054593;28;20363;-64
2023/05/02 04:00:57;;;;;;;;;;;;;;;;;;5059136;28;19970;-64
2023/05/02 04:03:24;;;;;;;;;;;;;;;;;;5065006;28;19982;-64
2023/05/02 04:05:51;;;;;;;;;;;;;;;;;;5068087;28;19924;-64
2023/05/02 04:08:18;;;;;;;;;;;;;;;;;;5068573;28;19924;-65
2023/05/02 04:10:45;;;;;;;;;;;;;;;;;;5062475;28;19928;-64
2023/05/02 04:13:12;;;;;;;;;;;;;;;;;;5063387;28;20016;-65
2023/05/02 04:15:39;;;;;;;;;;;;;;;;;;5058406;28;19963;-66
2023/05/02 04:18:06;;;;;;;;;;;;;;;;;;5060611;28;20408;-64
2023/05/02 04:20:33;;;;;;;;;;;;;;;;;;5054801;28;20019;-64
2023/05/02 04:23:00;;;;;;;;;;;;;;;;;;5067985;28;19975;-65
2023/05/02 04:25:27;;;;;;;;;;;;;;;;;;5056450;28;19975;-65
2023/05/02 04:27:54;;;;;;;;;;;;;;;;;;5070337;28;19978;-65
2023/05/02 04:30:21;;;;;;;;;;;;;;;;;;5054654;28;19983;-65
2023/05/02 04:32:49;;;;;;;;;;;;;;;;;;5070232;28;19993;-65
2023/05/02 04:35:16;;;;;;;;;;;;;;;;;;5068097;28;19931;-65
2023/05/02 04:37:43;;;;;;;;;;;;;;;;;;5071403;28;19975;-65
2023/05/02 04:40:11;;;;;;;;;;;;;;;;;;5069793;28;19924;-65
2023/05/02 04:42:38;;;;;;;;;;;;;;;;;;5060770;28;19928;-65
2023/05/02 04:45:05;;;;;;;;;;;;;;;;;;5070547;28;19970;-65
2023/05/02 04:47:32;;;;;;;;;;;;;;;;;;5065858;28;19978;-65
2023/05/02 04:49:59;;;;;;;;;;;;;;;;;;5067719;28;19978;-65
2023/05/02 04:52:26;;;;;;;;;;;;;;;;;;5072448;28;19979;-66
2023/05/02 04:54:53;;;;;;;;;;;;;;;;;;5066845;28;20405;-65
2023/05/02 04:57:20;;;;;;;;;;;;;;;;;;5067280;28;19929;-66
2023/05/02 04:59:47;;;;;;;;;;;;;;;;;;5060424;28;19924;-65
2023/05/02 05:02:14;;;;;;;;;;;;;;;;;;5063462;28;19964;-66
2023/05/02 05:04:41;;;;;;;;;;;;;;;;;;5064943;28;20390;-65
2023/05/02 05:07:08;;;;;;;;;;;;;;;;;;5053740;28;19975;-66
2023/05/02 05:09:35;;;;;;;;;;;;;;;;;;5059138;28;20439;-65
2023/05/02 05:12:02;;;;;;;;;;;;;;;;;;5061599;28;19940;-65
2023/05/02 05:14:30;;;;;;;;;;;;;;;;;;5065552;28;20010;-66
2023/05/02 05:16:58;;;;;;;;;;;;;;;;;;5072222;28;19931;-65
2023/05/02 05:19:25;;;;;;;;;;;;;;;;;;5067284;28;19968;-67
2023/05/02 05:21:52;;;;;;;;;;;;;;;;;;5063520;28;19986;-65
2023/05/02 05:24:19;;;;;;;;;;;;;;;;;;5067853;28;20029;-65
2023/05/02 05:26:46;;;;;;;;;;;;;;;;;;5054489;28;19935;-65
2023/05/02 05:29:13;;;;;;;;;;;;;;;;;;5065521;28;19924;-65
2023/05/02 05:31:41;;;;;;;;;;;;;;;;;;5065558;28;19928;-65
2023/05/02 05:34:08;;;;;;;;;;;;;;;;;;5064354;28;19933;-66
2023/05/02 05:36:36;;;;;;;;;;;;;;;;;;5055424;28;19975;-65
2023/05/02 05:39:03;;;;;;;;;;;;;;;;;;5057914;28;20016;-65
2023/05/02 05:41:30;;;;;;;;;;;;;;;;;;5064029;28;19939;-65
2023/05/02 05:43:57;;;;;;;;;;;;;;;;;;5070756;28;19932;-65
2023/05/02 05:46:24;;;;;;;;;;;;;;;;;;5063906;28;20376;-65
2023/05/02 05:48:51;;;;;;;;;;;;;;;;;;5068542;28;19968;-65
2023/05/02 05:51:18;;;;;;;;;;;;;;;;;;5066236;28;20339;-65
2023/05/02 05:53:45;;;;;;;;;;;;;;;;;;5055148;28;19974;-65
2023/05/02 05:56:12;;;;;;;;;;;;;;;;;;5059344;28;20400;-66
2023/05/02 05:58:39;;;;;;;;;;;;;;;;;;5065603;28;19931;-66
2023/05/02 06:01:06;;;;;;;;;;;;;;;;;;5062721;28;19933;-66
2023/05/02 06:03:33;;;;;;;;;;;;;;;;;;5063408;28;19925;-65
2023/05/02 06:06:00;;;;;;;;;;;;;;;;;;5057643;28;19979;-65
2023/05/02 06:08:27;;;;;;;;;;;;;;;;;;5069320;28;19924;-65
2023/05/02 06:10:54;;;;;;;;;;;;;;;;;;5067624;28;19971;-64
2023/05/02 06:13:21;;;;;;;;;;;;;;;;;;5062805;28;20447;-65
2023/05/02 06:15:48;;;;;;;;;;;;;;;;;;5061501;28;19978;-65
2023/05/02 06:18:15;;;;;;;;;;;;;;;;;;5059516;28;20254;-67
2023/05/02 06:20:42;;;;;;;;;;;;;;;;;;5062472;28;19932;-66
2023/05/02 06:23:09;;;;;;;;;;;;;;;;;;5063187;28;19932;-66
2023/05/02 06:25:36;;;;;;;;;;;;;;;;;;5068470;28;20010;-66
2023/05/02 06:28:03;;;;;;;;;;;;;;;;;;5064733;28;19960;-66
2023/05/02 06:30:30;;;;;;;;;;;;;;;;;;5068502;28;20326;-66
2023/05/02 06:32:57;;;;;;;;;;;;;;;;;;5061486;28;19934;-66
2023/05/02 06:35:24;;;;;;;;;;;;;;;;;;5063007;28;19971;-66
2023/05/02 06:37:51;;;;;;;;;;;;;;;;;;5071148;28;19956;-66
2023/05/02 06:40:18;;;;;;;;;;;;;;;;;;5068893;28;19935;-65
2023/05/02 06:42:45;;;;;;;;;;;;;;;;;;5065374;28;19965;-66
2023/05/02 06:45:12;;;;;;;;;;;;;;;;;;5062858;28;19925;-66
2023/05/02 06:47:39;;;;;;;;;;;;;;;;;;5069591;28;19947;-66
2023/05/02 06:50:06;;;;;;;;;;;;;;;;;;5065303;28;19925;-64
2023/05/02 06:52:33;;;;;;;;;;;;;;;;;;5057527;28;20352;-68
2023/05/02 06:55:00;;;;;;;;;;;;;;;;;;5065936;28;19978;-67
2023/05/02 06:57:29;;;;;;;;;;;;;;;;;;5067312;28;20467;-67
2023/05/02 06:59:57;;;;;;;;;;;;;;;;;;5062330;28;19924;-65
2023/05/02 07:02:24;;;;;;;;;;;;;;;;;;5062840;28;19925;-66
2023/05/02 07:04:51;;;;;;;;;;;;;;;;;;5070478;28;19928;-66
2023/05/02 07:07:20;;;;;;;;;;;;;;;;;;5062582;28;20339;-66
2023/05/02 07:09:47;;;;;;;;;;;;;;;;;;5067069;28;19925;-66
2023/05/02 07:12:14;;;;;;;;;;;;;;;;;;5062975;28;19924;-66
2023/05/02 07:14:42;;;;;;;;;;;;;;;;;;5074883;28;19947;-66
2023/05/02 07:17:09;;;;;;;;;;;;;;;;;;5060889;28;19972;-68
2023/05/02 07:19:36;;;;;;;;;;;;;;;;;;5067373;28;19924;-66
2023/05/02 07:22:03;;;;;;;;;;;;;;;;;;5065727;28;19994;-66
2023/05/02 07:24:30;;;;;;;;;;;;;;;;;;5061285;28;19925;-66
2023/05/02 07:26:57;;;;;;;;;;;;;;;;;;5067660;28;19924;-66
2023/05/02 07:29:24;;;;;;;;;;;;;;;;;;5067025;28;19924;-67
2023/05/02 07:31:51;;;;;;;;;;;;;;;;;;5063663;28;20067;-69
2023/05/02 07:34:18;;;;;;;;;;;;;;;;;;5065527;28;19936;-68
2023/05/02 07:36:45;;;;;;;;;;;;;;;;;;5067781;28;19936;-68
2023/05/02 07:39:12;;;;;;;;;;;;;;;;;;5057151;28;20317;-66
2023/05/02 07:41:39;;;;;;;;;;;;;;;;;;5069314;28;19929;-64
2023/05/02 07:44:07;;;;;;;;;;;;;;;;;;5062172;28;20391;-64
2023/05/02 07:46:34;;;;;;;;;;;;;;;;;;5070924;28;19967;-63
2023/05/02 07:49:01;;;;;;;;;;;;;;;;;;5069399;28;20425;-63
2023/05/02 07:51:28;;;;;;;;;;;;;;;;;;5068807;28;19991;-65
2023/05/02 07:53:57;;;;;;;;;;;;;;;;;;5068140;28;19924;-66
2023/05/02 07:56:24;;;;;;;;;;;;;;;;;;5068910;28;19932;-66
2023/05/02 07:58:51;;;;;;;;;;;;;;;;;;5068867;28;19924;-66
2023/05/02 08:01:18;;;;;;;;;;;;;;;;;;5066485;28;19931;-63
2023/05/02 08:03:45;;;;;;;;;;;;;;;;;;5065959;28;19933;-64
2023/05/02 08:06:12;;;;;;;;;;;;;;;;;;5069968;28;20302;-64
2023/05/02 08:08:39;;;;;;;;;;;;;;;;;;5061120;28;20015;-63
2023/05/02 08:11:06;;;;;;;;;;;;;;;;;;5062417;28;19925;-63
2023/05/02 08:13:33;;;;;;;;;;;;;;;;;;5070051;28;20029;-63
2023/05/02 08:16:01;;;;;;;;;;;;;;;;;;5069333;28;19924;-64
2023/05/02 08:18:28;;;;;;;;;;;;;;;;;;5069958;28;20011;-63
2023/05/02 08:20:55;;;;;;;;;;;;;;;;;;5059907;28;19925;-66
2023/05/02 08:23:22;;;;;;;;;;;;;;;;;;5069721;28;19932;-66
2023/05/02 08:25:49;;;;;;;;;;;;;;;;;;5066889;28;19933;-66
2023/05/02 08:28:17;;;;;;;;;;;;;;;;;;5065282;28;19925;-66
2023/05/02 08:30:45;;;;;;;;;;;;;;;;;;5060922;28;20007;-66
2023/05/02 08:33:12;;;;;;;;;;;;;;;;;;5068952;28;19975;-67
2023/05/02 08:35:39;;;;;;;;;;;;;;;;;;5069107;28;20399;-66
2023/05/02 08:38:06;;;;;;;;;;;;;;;;;;5061903;28;20392;-66
2023/05/02 08:40:33;;;;;;;;;;;;;;;;;;5061729;28;20026;-66
2023/05/02 08:43:00;;;;;;;;;;;;;;;;;;5071690;28;19929;-67
2023/05/02 08:45:27;;;;;;;;;;;;;;;;;;5066761;28;19931;-66
2023/05/02 08:47:54;;;;;;;;;;;;;;;;;;5062231;28;19925;-67
2023/05/02 08:50:22;;;;;;;;;;;;;;;;;;5057883;28;19952;-66
2023/05/02 08:52:50;;;;;;;;;;;;;;;;;;5069751;28;19985;-67
2023/05/02 08:55:17;;;;;;;;;;;;;;;;;;5062909;28;19932;-66
2023/05/02 08:57:44;;;;;;;;;;;;;;;;;;5068405;28;19928;-67
2023/05/02 09:00:11;;;;;;;;;;;;;;;;;;5062595;28;19929;-68
2023/05/02 09:02:38;;;;;;;;;;;;;;;;;;5065457;28;19929;-67
2023/05/02 09:05:05;;;;;;;;;;;;;;;;;;5068169;28;19970;-68
2023/05/02 09:07:32;;;;;;;;;;;;;;;;;;5070333;28;20498;-68
2023/05/02 09:09:59;;;;;;;;;;;;;;;;;;5064914;28;19925;-68
2023/05/02 09:12:26;;;;;;;;;;;;;;;;;;5062920;28;19931;-68
2023/05/02 09:14:53;;;;;;;;;;;;;;;;;;5069144;28;19925;-67
2023/05/02 09:17:20;;;;;;;;;;;;;;;;;;5062527;28;19970;-66
2023/05/02 09:19:50;;;;;;;;;;;;;;;;;;5067107;28;19924;-68
2023/05/02 09:22:17;;;;;;;;;;;;;;;;;;5061813;28;19965;-69
2023/05/02 09:24:44;;;;;;;;;;;;;;;;;;5060340;28;19952;-69
2023/05/02 09:27:12;;;;;;;;;;;;;;;;;;5066798;28;19986;-68
2023/05/02 09:29:39;;;;;;;;;;;;;;;;;;5067987;28;19932;-68
2023/05/02 09:32:06;;;;;;;;;;;;;;;;;;5064242;28;19924;-69
2023/05/02 09:34:33;;;;;;;;;;;;;;;;;;5069052;28;19986;-69
2023/05/02 09:37:02;;;;;;;;;;;;;;;;;;5066655;28;19925;-71
2023/05/02 09:39:29;;;;;;;;;;;;;;;;;;5054163;28;19931;-69
2023/05/02 09:41:56;;;;;;;;;;;;;;;;;;5062877;28;20352;-69
2023/05/02 09:44:23;;;;;;;;;;;;;;;;;;5072533;28;19986;-69
2023/05/02 09:46:50;;;;;;;;;;;;;;;;;;5074148;28;19924;-69
2023/05/02 09:49:18;;;;;;;;;;;;;;;;;;5073588;28;19925;-69
2023/05/02 09:51:45;;;;;;;;;;;;;;;;;;5062827;28;19935;-69
2023/05/02 09:54:12;;;;;;;;;;;;;;;;;;5062400;28;20359;-69
2023/05/02 09:56:39;;;;;;;;;;;;;;;;;;5059156;28;19924;-69
2023/05/02 09:59:06;;;;;;;;;;;;;;;;;;5068027;28;19924;-69
2023/05/02 10:01:33;;;;;;;;;;;;;;;;;;5071971;28;19978;-69
2023/05/02 10:04:00;;;;;;;;;;;;;;;;;;5072811;28;20383;-69
2023/05/02 10:06:28;;;;;;;;;;;;;;;;;;5062720;28;19936;-69
2023/05/02 10:08:55;;;;;;;;;;;;;;;;;;5066249;28;19924;-69
2023/05/02 10:11:23;;;;;;;;;;;;;;;;;;5069379;28;20293;-69
2023/05/02 10:13:51;;;;;;;;;;;;;;;;;;5071256;28;20066;-67
2023/05/02 10:16:18;;;;;;;;;;;;;;;;;;5064053;28;20308;-66
2023/05/02 10:18:45;;;;;;;;;;;;;;;;;;5070956;28;19929;-68
2023/05/02 10:21:12;;;;;;;;;;;;;;;;;;5068701;28;19998;-67
2023/05/02 10:23:40;;;;;;;;;;;;;;;;;;5070493;28;19932;-68
2023/05/02 10:26:07;;;;;;;;;;;;;;;;;;5058675;28;19928;-65
2023/05/02 10:28:34;;;;;;;;;;;;;;;;;;5074946;28;20385;-66
2023/05/02 10:31:01;;;;;;;;;;;;;;;;;;5070679;28;19955;-65
2023/05/02 10:33:28;;;;;;;;;;;;;;;;;;5066676;28;19925;-65
2023/05/02 10:35:55;;;;;;;;;;;;;;;;;;5070992;28;19930;-65
2023/05/02 10:38:23;;;;;;;;;;;;;;;;;;5059266;28;19928;-65
2023/05/02 10:40:54;;;;;;;;;;;;;;;;;;5070315;28;20001;-65
2023/05/02 10:43:21;;;;;;;;;;;;;;;;;;5072630;28;20055;-65
2023/05/02 10:45:48;;;;;;;;;;;;;;;;;;5055301;28;20085;-65
2023/05/02 10:48:15;;;;;;;;;;;;;;;;;;5063110;28;19940;-65
2023/05/02 10:50:42;;;;;;;;;;;;;;;;;;5067322;28;20405;-66
2023/05/02 10:53:09;;;;;;;;;;;;;;;;;;5059050;28;19964;-66
2023/05/02 10:55:36;;;;;;;;;;;;;;;;;;5058489;28;19925;-67
2023/05/02 10:58:03;;;;;;;;;;;;;;;;;;5060173;28;19933;-67
2023/05/02 11:00:31;;;;;;;;;;;;;;;;;;5069355;28;20463;-67
2023/05/02 11:02:58;;;;;;;;;;;;;;;;;;5059371;28;21990;-67
2023/05/02 11:05:25;;;;;;;;;;;;;;;;;;5065818;28;20009;-66
2023/05/02 11:07:52;;;;;;;;;;;;;;;;;;5064927;28;19971;-68
2023/05/02 11:10:19;;;;;;;;;;;;;;;;;;5064332;28;20064;-66
2023/05/02 11:12:46;;;;;;;;;;;;;;;;;;5071319;28;20410;-66
2023/05/02 11:15:13;;;;;;;;;;;;;;;;;;5070885;28;19924;-66
2023/05/02 11:17:40;;;;;;;;;;;;;;;;;;5055955;28;19963;-67
2023/05/02 11:20:07;;;;;;;;;;;;;;;;;;5071056;28;19932;-65
2023/05/02 11:22:35;;;;;;;;;;;;;;;;;;5073096;28;20292;-65
2023/05/02 11:25:02;;;;;;;;;;;;;;;;;;5060810;28;19960;-65
2023/05/02 11:27:29;;;;;;;;;;;;;;;;;;5066968;28;19924;-65
2023/05/02 11:29:58;;;;;;;;;;;16.30;84.20;;;;;;5060183;28;19943;-65
2023/05/02 11:32:26;;;;;;;;;;;15.40;52.50;;;;;;5063763;28;20024;-65
2023/05/02 11:34:54;;;;;;;;;;;15.20;57.80;;;;;;5060809;28;19924;-65
2023/05/02 11:37:21;;;;;;;;;;;15.30;57.20;;;;;;5075382;28;19925;-65
2023/05/02 11:39:47;;;;;;;;;;;15.60;58.70;;;;;;5068498;28;19924;-64
2023/05/02 11:42:30;;;;;;;;;;;14.90;58.00;;;;;;5062124;28;19974;-65
2023/05/02 11:44:59;;;;;;;;;;;14.90;58.70;;;;;;5068268;28;19947;-65
2023/05/02 11:47:26;;;;;;;;;;;15.30;58.10;;;;;;5067876;28;19971;-65
2023/05/02 11:49:54;;;;;;;;;;;15.70;56.90;;;;;;5070140;28;22351;-65
2023/05/02 11:52:21;;;;;;;;;;;15.30;56.10;;;;;;5058820;28;19932;-65
2023/05/02 11:54:48;;;;;;;;;;;15.20;56.10;;;;;;5054899;28;20506;-65
2023/05/02 11:57:15;;;;;;;;;;;15.70;56.50;;;;;;5065123;28;19936;-65
2023/05/02 11:59:51;;;;;;;;;;;15.70;55.30;;;;;;5064539;28;20453;-65
2023/05/02 12:02:20;;;;;;;;;;;16.10;55.60;;;;;;5053738;28;19946;-65
2023/05/02 12:04:46;;;;;;;;;;;15.40;57.10;;;;;;5068108;28;19990;-66
2023/05/02 12:07:13;;;;;;;;;;;15.60;55.40;;;;;;5069307;28;19924;-64
2023/05/02 12:09:53;;;;;;;;;;;16.00;55.10;;;;;;5060394;28;19932;-64
2023/05/02 12:12:20;;;;;;;;;;;15.60;53.70;;;;;;5070444;28;19924;-65
2023/05/02 12:14:47;;;;;;;;;;;16.20;53.80;;;;;;5059332;28;20007;-65
2023/05/02 12:17:14;;;;;;;;;;;16.60;54.10;;;;;;5069288;28;20007;-65
2023/05/02 12:19:42;;;;;;;;;;;16.30;52.60;;;;;;5060297;28;19978;-65
2023/05/02 12:22:09;;;;;;;;;;;16.00;54.60;;;;;;5069465;28;19928;-64
2023/05/02 12:24:36;;;;;;;;;;;15.90;50.20;;;;;;5057583;28;19925;-65
2023/05/02 12:27:09;;;;;;;;;;;15.20;54.00;;;;;;5061976;28;19925;-65
2023/05/02 12:29:40;;;;;;;;;;;14.70;56.40;;;;;;5052933;28;19943;-65
2023/05/02 12:32:07;;;;;;;;;;;15.00;55.10;;;;;;5067715;28;19985;-63
2023/05/02 12:34:34;;;;;;;;;;;14.90;55.00;;;;;;5070299;28;19924;-65
2023/05/02 12:37:02;;;;;;;;;;;15.10;56.10;;;;;;5069052;28;19932;-63
2023/05/02 12:39:36;;;;;;;;;;;14.70;55.80;;;;;;5060977;28;20049;-63
2023/05/02 12:42:09;;;;;;;;;;;14.80;55.00;;;;;;5070000;28;19924;-63
2023/05/02 12:44:37;;;;;;;;;;;15.20;52.60;;;;;;5063643;28;19982;-63
2023/05/02 12:47:04;;;;;;;;;;;16.00;50.90;;;;;;5057042;28;19932;-64
2023/05/02 12:49:31;;;;;;;;;;;15.80;47.80;;;;;;5063009;28;20389;-64
2023/05/02 12:51:58;;;;;;;;;;;15.70;50.10;;;;;;5068182;28;19976;-63
2023/05/02 12:54:26;;;;;;;;;;;16.20;49.30;;;;;;5067569;28;19924;-64
2023/05/02 12:56:53;;;;;;;;;;;16.60;50.10;;;;;;5066316;28;19960;-64
2023/05/02 12:59:26;;;;;;;;;;;16.70;48.40;;;;;;5055097;28;19925;-65
2023/05/02 13:01:53;;;;;;;;;;;16.80;47.80;;;;;;5062996;28;19925;-66
2023/05/02 13:04:20;;;;;;;;;;;16.30;47.80;;;;;;5072175;28;19928;-65
2023/05/02 13:06:46;;;;;;;;;;;16.50;45.80;;;;;;5058598;28;19928;-65
2023/05/02 13:09:13;;;;;;;;;;;16.50;45.70;;;;;;5055233;28;19925;-66
2023/05/02 13:11:41;;;;;;;;;;;16.00;47.20;;;;;;5051965;28;19925;-66
2023/05/02 13:14:10;;;;;;;;;;;16.00;48.60;;;;;;5066325;28;19932;-66
2023/05/02 13:16:37;;;;;;;;;;;16.60;49.30;;;;;;5066596;28;20405;-66
2023/05/02 13:19:04;;;;;;;;;;;16.60;47.40;;;;;;5066426;28;19924;-66
2023/05/02 13:21:31;;;;;;;;;;;17.00;46.90;;;;;;5057872;28;19971;-66
2023/05/02 13:23:58;;;;;;;;;;;17.10;47.20;;;;;;5068957;28;19928;-66
2023/05/02 13:26:24;;;;;;;;;;;16.80;45.30;;;;;;5070523;28;20446;-68
2023/05/02 13:28:52;;;;;;;;;;;16.20;47.90;;;;;;5069746;28;19924;-67
2023/05/02 13:31:19;;;;;;;;;;;16.30;47.40;;;;;;5066190;28;19928;-68
2023/05/02 13:33:46;;;;;;;;;;;15.90;48.00;;;;;;5058447;28;19928;-68
2023/05/02 13:36:13;;;;;;;;;;;16.10;47.50;;;;;;5061022;28;19929;-70
2023/05/02 13:38:40;;;;;;;;;;;16.40;46.50;;;;;;5071246;28;20325;-68
2023/05/02 13:41:06;;;;;;;;;;;16.50;45.30;;;;;;5067805;28;19983;-68
2023/05/02 13:43:33;;;;;;;;;;;16.80;45.30;;;;;;5069495;28;19994;-67
2023/05/02 13:46:01;;;;;;;;;;;17.00;44.40;;;;;;5066309;28;19932;-67
2023/05/02 13:48:28;;;;;;;;;;;17.00;44.60;;;;;;5071742;28;19978;-68
2023/05/02 13:50:55;;;;;;;;;;;16.70;43.10;;;;;;5067942;28;19968;-68
2023/05/02 13:53:22;;;;;;;;;;;15.80;44.60;;;;;;5066592;28;20427;-68
2023/05/02 13:55:49;;;;;;;;;;;15.10;44.80;;;;;;5063604;28;20345;-67
2023/05/02 13:58:15;;;;;;;;;;;15.70;44.70;;;;;;5063565;28;19978;-68
2023/05/02 14:00:42;;;;;;;;;;;16.30;44.30;;;;;;5071600;28;19925;-66
2023/05/02 14:03:10;;;;;;;;;;;16.60;43.00;;;;;;5053818;28;19925;-67
2023/05/02 14:05:39;;;;;;;;;;;15.90;44.30;;;;;;5085616;28;20337;-67
2023/05/02 14:08:06;;;;;;;;;;;16.20;43.10;;;;;;5054835;28;19929;-67
2023/05/02 14:10:35;;;;;;;;;;;15.30;42.60;;;;;;5074991;28;19971;-65
2023/05/02 14:13:01;;;;;;;;;;;16.00;43.60;;;;;;5069266;28;20273;-67
2023/05/02 14:15:28;;;;;;;;;;;16.30;42.00;;;;;;5067295;28;20021;-65
2023/05/02 14:17:55;;;;;;;;;;;16.40;43.70;;;;;;5065607;28;19925;-69
2023/05/02 14:20:23;;;;;;;;;;;16.40;42.20;;;;;;5068151;28;19924;-67
2023/05/02 14:22:50;;;;;;;;;;;16.10;41.00;;;;;;5068803;28;19925;-67
2023/05/02 14:25:18;;;;;;;;;;;16.00;41.90;;;;;;5057212;28;20376;-67
2023/05/02 14:27:45;;;;;;;;;;;15.10;43.00;;;;;;5057593;28;19936;-68
2023/05/02 14:30:12;;;;;;;;;;;15.40;45.00;;;;;;5063840;28;20322;-67
2023/05/02 14:32:38;;;;;;;;;;;16.00;42.00;;;;;;5072648;28;19925;-67
2023/05/02 14:35:06;;;;;;;;;;;16.00;42.00;;;;;;5072110;28;19970;-66
2023/05/02 14:37:34;;;;;;;;;;;16.10;42.70;;;;;;5064393;28;19924;-67
2023/05/02 14:40:01;;;;;;;;;;;16.00;42.20;;;;;;5062752;28;20002;-68
2023/05/02 14:42:28;;;;;;;;;;;16.00;43.40;;;;;;5056913;28;19924;-68
2023/05/02 14:44:54;;;;;;;;;;;16.00;41.80;;;;;;5058618;28;19933;-67
2023/05/02 14:47:21;;;;;;;;;;;16.10;42.00;;;;;;5062011;28;19931;-67
2023/05/02 14:49:48;;;;;;;;;;;16.20;42.50;;;;;;5058698;28;19928;-68
2023/05/02 14:52:15;;;;;;;;;;;16.10;40.50;;;;;;5072250;28;19963;-66
2023/05/02 14:54:43;;;;;;;;;;;15.80;42.50;;;;;;5071937;28;19924;-66
2023/05/02 14:57:10;;;;;;;;;;;16.00;41.90;;;;;;5074775;28;19924;-66
2023/05/02 14:59:37;;;;;;;;;;;15.40;43.10;;;;;;5067105;28;19928;-66
2023/05/02 15:02:04;;;;;;;;;;;15.40;43.10;;;;;;5068670;28;20423;-67
2023/05/02 15:04:31;;;;;;;;;;;15.90;40.90;;;;;;5068677;28;19972;-65
2023/05/02 15:06:57;;;;;;;;;;;15.30;41.50;;;;;;5056839;28;19974;-65
2023/05/02 15:09:25;;;;;;;;;;;15.50;41.70;;;;;;5067340;28;19924;-65
2023/05/02 15:11:53;;;;;;;;;;;15.50;43.00;;;;;;5072683;28;19924;-65
2023/05/02 15:14:20;;;;;;;;;;;15.40;43.20;;;;;;5066108;28;19968;-65
2023/05/02 15:16:47;;;;;;;;;;;15.50;42.90;;;;;;5057030;28;20339;-66
2023/05/02 15:19:13;;;;;;;;;;;16.00;42.40;;;;;;5057095;28;19970;-67
2023/05/02 15:21:40;;;;;;;;;;;16.00;41.50;;;;;;5060517;28;19925;-67
2023/05/02 15:24:07;;;;;;;;;;;15.90;43.00;;;;;;5061680;28;19925;-66
2023/05/02 15:26:34;;;;;;;;;;;16.00;41.40;;;;;;5053710;28;19986;-66
2023/05/02 15:29:02;;;;;;;;;;;15.30;43.80;;;;;;5058639;28;20461;-67
2023/05/02 15:31:29;;;;;;;;;;;15.30;61.00;;;;;;5068868;28;20384;-67
2023/05/02 15:33:55;;;;;;;;;;;15.70;64.40;;;;;;5063810;28;19928;-66
2023/05/02 15:36:26;;;;;;;;;;;16.60;61.50;;;;;;5073828;28;19924;-67
2023/05/02 15:38:53;;;;;;;;;;;16.10;59.60;;;;;;5068331;28;19970;-67
2023/05/02 15:41:20;;;;;;;;;;;;;;;;;;5071828;28;19978;-67
2023/05/02 15:43:46;;;;;;;;;;;15.20;60.30;;;;;;5073259;28;20318;-67
2023/05/02 15:46:13;;;;;;;;;;;;;;;;;;5073584;28;19931;-67
2023/05/02 15:48:41;;;;;;;;;;;;;;;;;;5071555;28;19932;-67
2023/05/02 15:51:09;;;;;;;;;;;;;;;;;;5064597;28;19929;-66
2023/05/02 15:53:38;;;;;;;;;;;;;;;;;;5054585;28;20328;-66
2023/05/02 15:56:05;;;;;;;;;;;;;;;;;;5068365;28;19982;-67
2023/05/02 15:58:32;;;;;;;;;;;;;;;;;;5072454;28;20308;-64
2023/05/02 16:00:59;;;;;;;;;;;;;;;;;;5068839;28;19977;-65